createdAt,value
2023-03-22T00:00:28.650Z,9.18
2023-03-22T00:01:28.664Z,9.18
2023-03-22T00:02:28.660Z,9.18
2023-03-22T00:03:28.619Z,9.22
2023-03-22T00:04:28.604Z,9.19
2023-03-22T00:05:28.577Z,9.26
2023-03-22T00:06:28.563Z,9.32
2023-03-22T00:07:28.601Z,9.32
2023-03-22T00:08:28.541Z,9.34
2023-03-22T00:09:28.541Z,9.36
2023-03-22T00:10:28.513Z,9.40
2023-03-22T00:11:28.515Z,9.50
2023-03-22T00:12:28.541Z,9.56
2023-03-22T00:13:28.493Z,9.65
2023-03-22T00:14:28.479Z,9.66
2023-03-22T00:15:28.494Z,9.68
2023-03-22T00:16:28.509Z,9.65
2023-03-22T00:17:28.496Z,9.66
2023-03-22T00:18:28.433Z,9.72
2023-03-22T00:19:28.445Z,9.73
2023-03-22T00:20:28.401Z,9.73
2023-03-22T00:21:28.409Z,9.76
2023-03-22T00:22:28.413Z,9.72
2023-03-22T00:23:28.408Z,9.68
2023-03-22T00:24:28.368Z,9.58
2023-03-22T00:25:28.357Z,9.58
2023-03-22T00:26:28.348Z,9.62
2023-03-22T00:27:28.334Z,9.64
2023-03-22T00:28:28.353Z,9.58
2023-03-22T00:29:28.315Z,9.55
2023-03-22T00:30:28.287Z,9.56
2023-03-22T00:31:28.311Z,9.56
2023-03-22T00:32:28.281Z,9.61
2023-03-22T00:33:28.327Z,9.61
2023-03-22T00:34:28.248Z,9.58
2023-03-22T00:35:28.242Z,9.51
2023-03-22T00:36:28.234Z,9.46
2023-03-22T00:37:28.219Z,9.41
2023-03-22T00:38:41.441Z,9.41
2023-03-22T00:39:29.201Z,9.37
2023-03-22T00:40:28.206Z,9.32
2023-03-22T00:41:28.187Z,9.29
2023-03-22T00:42:28.146Z,9.25
2023-03-22T00:43:28.186Z,9.21
2023-03-22T00:44:28.132Z,9.14
2023-03-22T00:45:28.137Z,9.16
2023-03-22T00:46:28.139Z,9.23
2023-03-22T00:47:28.129Z,9.29
2023-03-22T00:48:28.129Z,9.31
2023-03-22T00:49:28.106Z,9.28
2023-03-22T00:50:28.077Z,9.28
2023-03-22T00:51:28.065Z,9.23
2023-03-22T00:52:28.043Z,9.21
2023-03-22T00:53:28.075Z,9.19
2023-03-22T00:54:28.042Z,9.16
2023-03-22T00:55:28.097Z,9.16
2023-03-22T00:56:28.005Z,9.14
2023-03-22T00:57:27.990Z,9.13
2023-03-22T00:58:28.009Z,9.14
2023-03-22T00:59:27.977Z,9.26
2023-03-22T01:00:27.966Z,9.36
2023-03-22T01:01:28.006Z,9.44
2023-03-22T01:02:27.937Z,9.48
2023-03-22T01:03:28.009Z,9.54
2023-03-22T01:04:27.927Z,9.61
2023-03-22T01:05:27.909Z,9.62
2023-03-22T01:06:27.897Z,9.65
2023-03-22T01:07:27.900Z,9.62
2023-03-22T01:08:27.909Z,9.54
2023-03-22T01:09:27.901Z,9.43
2023-03-22T01:10:27.857Z,9.34
2023-03-22T01:11:27.840Z,9.28
2023-03-22T01:12:27.853Z,9.19
2023-03-22T01:13:27.839Z,9.14
2023-03-22T01:14:27.832Z,9.10
2023-03-22T01:15:27.782Z,9.06
2023-03-22T01:16:27.859Z,9.10
2023-03-22T01:17:27.790Z,9.23
2023-03-22T01:18:27.766Z,9.26
2023-03-22T01:19:27.793Z,9.23
2023-03-22T01:20:27.732Z,9.21
2023-03-22T01:21:27.729Z,9.13
2023-03-22T01:22:27.710Z,9.13
2023-03-22T01:23:27.692Z,9.14
2023-03-22T01:24:27.724Z,9.28
2023-03-22T01:25:27.681Z,9.32
2023-03-22T01:26:27.678Z,9.31
2023-03-22T01:27:27.654Z,9.25
2023-03-22T01:28:27.672Z,9.21
2023-03-22T01:29:27.666Z,9.13
2023-03-22T01:30:27.658Z,9.08
2023-03-22T01:31:27.626Z,9.08
2023-03-22T01:32:27.595Z,9.03
2023-03-22T01:33:27.587Z,9.00
2023-03-22T01:34:27.607Z,8.94
2023-03-22T01:35:27.612Z,8.89
2023-03-22T01:36:27.540Z,8.82
2023-03-22T01:37:27.560Z,8.81
2023-03-22T01:38:27.536Z,8.76
2023-03-22T01:39:27.550Z,8.88
2023-03-22T01:40:27.503Z,9.03
2023-03-22T01:41:27.520Z,9.14
2023-03-22T01:42:27.498Z,9.31
2023-03-22T01:43:27.483Z,9.32
2023-03-22T01:44:27.523Z,9.31
2023-03-22T01:45:27.460Z,9.34
2023-03-22T01:46:27.448Z,9.26
2023-03-22T01:47:27.424Z,9.18
2023-03-22T01:48:27.428Z,9.03
2023-03-22T01:49:27.468Z,8.91
2023-03-22T01:50:27.394Z,8.78
2023-03-22T01:51:27.399Z,8.71
2023-03-22T01:52:27.371Z,8.56
2023-03-22T01:53:27.441Z,8.61
2023-03-22T01:54:27.385Z,8.58
2023-03-22T01:55:27.384Z,8.46
2023-03-22T01:56:27.339Z,8.31
2023-03-22T01:57:27.323Z,8.19
2023-03-22T01:58:27.313Z,8.12
2023-03-22T01:59:27.339Z,8.08
2023-03-22T02:00:27.286Z,7.97
2023-03-22T02:01:27.371Z,7.97
2023-03-22T02:02:27.297Z,7.90
2023-03-22T02:03:27.239Z,7.91
2023-03-22T02:04:27.316Z,7.95
2023-03-22T02:05:27.262Z,7.95
2023-03-22T02:06:27.235Z,7.88
2023-03-22T02:07:27.221Z,7.83
2023-03-22T02:08:27.205Z,7.73
2023-03-22T02:09:27.180Z,7.66
2023-03-22T02:10:27.230Z,7.51
2023-03-22T02:11:27.181Z,7.45
2023-03-22T02:12:27.140Z,7.42
2023-03-22T02:13:27.132Z,7.39
2023-03-22T02:14:27.502Z,7.29
2023-03-22T02:15:27.153Z,7.25
2023-03-22T02:16:27.118Z,7.23
2023-03-22T02:17:27.106Z,7.18
2023-03-22T02:18:27.078Z,7.14
2023-03-22T02:19:27.069Z,7.13
2023-03-22T02:20:27.091Z,7.11
2023-03-22T02:21:27.038Z,7.06
2023-03-22T02:22:27.044Z,7.00
2023-03-22T02:23:27.016Z,6.99
2023-03-22T02:24:27.025Z,7.05
2023-03-22T02:25:27.058Z,7.05
2023-03-22T02:26:26.993Z,6.99
2023-03-22T02:27:26.990Z,6.93
2023-03-22T02:28:26.985Z,6.84
2023-03-22T02:29:26.990Z,6.84
2023-03-22T02:30:26.987Z,6.81
2023-03-22T02:31:27.000Z,6.85
2023-03-22T02:32:26.967Z,6.85
2023-03-22T02:33:26.911Z,6.96
2023-03-22T02:34:26.915Z,6.88
2023-03-22T02:35:27.031Z,6.84
2023-03-22T02:36:26.888Z,6.72
2023-03-22T02:37:26.862Z,6.69
2023-03-22T02:38:26.886Z,6.63
2023-03-22T02:39:26.889Z,6.56
2023-03-22T02:40:26.915Z,6.54
2023-03-22T02:41:26.828Z,6.56
2023-03-22T02:42:26.819Z,6.51
2023-03-22T02:43:26.800Z,6.51
2023-03-22T02:44:26.861Z,6.49
2023-03-22T02:45:26.816Z,6.51
2023-03-22T02:46:26.827Z,6.48
2023-03-22T02:47:26.755Z,6.49
2023-03-22T02:48:26.820Z,6.52
2023-03-22T02:49:26.757Z,6.52
2023-03-22T02:50:26.746Z,6.81
2023-03-22T02:51:26.717Z,6.85
2023-03-22T02:52:26.690Z,6.87
2023-03-22T02:53:26.696Z,7.11
2023-03-22T02:54:26.766Z,7.13
2023-03-22T02:55:26.707Z,7.07
2023-03-22T02:56:26.651Z,7.00
2023-03-22T02:57:26.640Z,6.89
2023-03-22T02:58:26.655Z,6.82
2023-03-22T02:59:26.675Z,6.78
2023-03-22T03:00:26.652Z,6.78
2023-03-22T03:01:26.591Z,6.67
2023-03-22T03:02:26.677Z,6.52
2023-03-22T03:03:26.568Z,6.44
2023-03-22T03:04:26.568Z,6.38
2023-03-22T03:05:26.596Z,6.30
2023-03-22T03:06:26.559Z,6.22
2023-03-22T03:07:26.539Z,6.12
2023-03-22T03:08:26.557Z,6.08
2023-03-22T03:09:26.516Z,5.99
2023-03-22T03:10:26.590Z,5.93
2023-03-22T03:11:26.487Z,5.93
2023-03-22T03:12:26.501Z,5.97
2023-03-22T03:13:26.464Z,5.93
2023-03-22T03:14:26.533Z,5.90
2023-03-22T03:15:26.486Z,-40.00
2023-03-22T03:16:26.558Z,5.84
2023-03-22T03:17:26.444Z,5.84
2023-03-22T03:18:26.398Z,5.76
2023-03-22T03:19:26.430Z,5.86
2023-03-22T03:20:26.416Z,5.87
2023-03-22T03:21:26.407Z,5.87
2023-03-22T03:22:26.400Z,5.91
2023-03-22T03:23:26.393Z,5.86
2023-03-22T03:24:26.328Z,5.89
2023-03-22T03:25:26.366Z,5.91
2023-03-22T03:26:26.323Z,5.90
2023-03-22T03:27:26.301Z,5.86
2023-03-22T03:28:26.295Z,5.84
2023-03-22T03:29:26.283Z,5.83
2023-03-22T03:30:26.324Z,5.82
2023-03-22T03:31:26.400Z,5.79
2023-03-22T03:32:26.271Z,5.69
2023-03-22T03:33:26.285Z,5.68
2023-03-22T03:34:26.251Z,5.72
2023-03-22T03:35:26.244Z,5.68
2023-03-22T03:36:26.269Z,5.61
2023-03-22T03:37:26.217Z,5.57
2023-03-22T03:38:26.177Z,5.59
2023-03-22T03:39:26.202Z,5.57
2023-03-22T03:40:26.159Z,5.61
2023-03-22T03:41:26.187Z,5.54
2023-03-22T03:42:26.167Z,5.51
2023-03-22T03:43:26.146Z,5.47
2023-03-22T03:44:26.195Z,5.46
2023-03-22T03:45:26.175Z,5.44
2023-03-22T03:46:26.143Z,5.41
2023-03-22T03:47:26.096Z,5.35
2023-03-22T03:48:26.123Z,5.36
2023-03-22T03:49:26.058Z,5.35
2023-03-22T03:50:26.076Z,5.47
2023-03-22T03:51:26.093Z,5.44
2023-03-22T03:52:26.033Z,5.57
2023-03-22T03:53:26.017Z,5.54
2023-03-22T03:54:26.023Z,5.50
2023-03-22T03:55:25.999Z,5.47
2023-03-22T03:56:26.038Z,5.54
2023-03-22T03:57:25.955Z,5.61
2023-03-22T03:58:25.977Z,5.62
2023-03-22T03:59:25.980Z,5.62
2023-03-22T04:00:25.949Z,5.64
2023-03-22T04:01:25.952Z,5.61
2023-03-22T04:02:25.996Z,5.64
2023-03-22T04:03:25.906Z,5.62
2023-03-22T04:04:25.982Z,5.64
2023-03-22T04:05:25.909Z,5.64
2023-03-22T04:06:25.919Z,5.75
2023-03-22T04:07:25.863Z,5.71
2023-03-22T04:08:25.833Z,5.65
2023-03-22T04:09:25.820Z,5.68
2023-03-22T04:10:25.820Z,5.75
2023-03-22T04:11:25.835Z,5.79
2023-03-22T04:12:25.828Z,5.73
2023-03-22T04:13:25.779Z,5.71
2023-03-22T04:14:25.796Z,5.65
2023-03-22T04:15:25.754Z,5.72
2023-03-22T04:16:25.842Z,5.69
2023-03-22T04:17:25.744Z,5.71
2023-03-22T04:18:25.740Z,5.68
2023-03-22T04:19:25.712Z,5.57
2023-03-22T04:20:25.698Z,5.47
2023-03-22T04:21:25.740Z,5.36
2023-03-22T04:22:25.689Z,5.28
2023-03-22T04:23:25.704Z,5.25
2023-03-22T04:24:25.671Z,5.25
2023-03-22T04:25:25.639Z,5.26
2023-03-22T04:26:26.828Z,5.28
2023-03-22T04:27:25.617Z,5.26
2023-03-22T04:28:25.603Z,5.28
2023-03-22T04:29:25.605Z,5.26
2023-03-22T04:30:25.590Z,5.29
2023-03-22T04:31:25.715Z,5.38
2023-03-22T04:32:25.560Z,5.43
2023-03-22T04:33:25.555Z,5.43
2023-03-22T04:34:25.556Z,5.43
2023-03-22T04:35:25.580Z,5.44
2023-03-22T04:36:25.559Z,5.48
2023-03-22T04:37:25.510Z,5.53
2023-03-22T04:38:25.489Z,5.51
2023-03-22T04:39:25.485Z,5.47
2023-03-22T04:40:25.479Z,5.48
2023-03-22T04:41:25.492Z,5.48
2023-03-22T04:42:25.491Z,5.56
2023-03-22T04:43:25.434Z,5.54
2023-03-22T04:44:25.422Z,5.51
2023-03-22T04:45:25.413Z,5.54
2023-03-22T04:46:25.467Z,5.51
2023-03-22T04:47:25.393Z,5.50
2023-03-22T04:48:25.379Z,5.48
2023-03-22T04:49:25.371Z,5.47
2023-03-22T04:50:25.372Z,5.44
2023-03-22T04:51:25.370Z,5.43
2023-03-22T04:52:25.351Z,5.41
2023-03-22T04:53:25.323Z,5.39
2023-03-22T04:54:25.317Z,5.33
2023-03-22T04:55:25.302Z,5.29
2023-03-22T04:56:25.337Z,5.30
2023-03-22T04:57:25.277Z,5.36
2023-03-22T04:58:25.258Z,5.32
2023-03-22T04:59:25.249Z,5.32
2023-03-22T05:00:25.227Z,5.36
2023-03-22T05:01:25.283Z,5.36
2023-03-22T05:02:25.282Z,5.35
2023-03-22T05:03:25.192Z,5.35
2023-03-22T05:04:25.187Z,5.36
2023-03-22T05:05:25.193Z,5.44
2023-03-22T05:06:25.217Z,5.46
2023-03-22T05:07:25.158Z,5.47
2023-03-22T05:08:25.170Z,5.46
2023-03-22T05:09:25.136Z,5.43
2023-03-22T05:10:25.131Z,5.41
2023-03-22T05:11:25.153Z,5.39
2023-03-22T05:12:25.114Z,5.38
2023-03-22T05:13:25.090Z,5.38
2023-03-22T05:14:25.095Z,5.38
2023-03-22T05:15:25.081Z,5.46
2023-03-22T05:16:25.118Z,5.51
2023-03-22T05:17:25.070Z,5.53
2023-03-22T05:18:25.040Z,5.53
2023-03-22T05:19:25.014Z,5.57
2023-03-22T05:20:25.011Z,5.66
2023-03-22T05:21:25.024Z,5.72
2023-03-22T05:22:24.985Z,5.76
2023-03-22T05:23:24.976Z,5.82
2023-03-22T05:24:24.993Z,5.83
2023-03-22T05:25:24.950Z,5.82
2023-03-22T05:26:24.975Z,5.89
2023-03-22T05:27:24.947Z,5.91
2023-03-22T05:28:24.951Z,6.01
2023-03-22T05:29:24.923Z,6.07
2023-03-22T05:30:24.913Z,6.02
2023-03-22T05:31:24.948Z,-39.96
2023-03-22T05:32:24.870Z,-39.96
2023-03-22T05:33:24.869Z,-40.00
2023-03-22T05:34:24.854Z,-40.00
2023-03-22T05:35:24.897Z,6.16
2023-03-22T05:36:24.866Z,-39.96
2023-03-22T05:37:24.832Z,6.16
2023-03-22T05:38:24.822Z,6.14
2023-03-22T05:39:24.820Z,6.19
2023-03-22T05:40:24.801Z,6.19
2023-03-22T05:41:24.823Z,-40.00
2023-03-22T05:42:24.767Z,-40.00
2023-03-22T05:43:24.763Z,6.41
2023-03-22T05:44:24.735Z,6.45
2023-03-22T05:45:24.722Z,6.46
2023-03-22T05:46:24.805Z,6.49
2023-03-22T05:47:24.708Z,6.60
2023-03-22T05:48:24.753Z,-40.00
2023-03-22T05:49:24.676Z,-40.00
2023-03-22T05:50:24.698Z,-40.00
2023-03-22T05:51:24.713Z,-40.00
2023-03-22T05:52:24.665Z,6.69
2023-03-22T05:53:24.647Z,-40.00
2023-03-22T05:54:24.632Z,-40.00
2023-03-22T05:55:24.644Z,-40.00
2023-03-22T05:56:24.887Z,6.85
2023-03-22T05:57:24.656Z,7.07
2023-03-22T05:58:24.636Z,7.15
2023-03-22T05:59:24.613Z,7.43
2023-03-22T06:00:24.587Z,7.60
2023-03-22T06:01:24.619Z,7.69
2023-03-22T06:02:24.575Z,7.67
2023-03-22T06:03:24.590Z,7.61
2023-03-22T06:04:24.523Z,7.67
2023-03-22T06:05:24.494Z,7.66
2023-03-22T06:06:24.546Z,7.72
2023-03-22T06:07:24.498Z,7.82
2023-03-22T06:08:26.513Z,8.03
2023-03-22T06:09:24.477Z,8.30
2023-03-22T06:10:24.467Z,8.42
2023-03-22T06:11:24.521Z,8.41
2023-03-22T06:12:24.655Z,8.51
2023-03-22T06:13:24.492Z,8.64
2023-03-22T06:14:24.447Z,8.69
2023-03-22T06:15:24.446Z,8.76
2023-03-22T06:16:24.471Z,8.70
2023-03-22T06:17:24.429Z,8.79
2023-03-22T06:18:24.395Z,8.79
2023-03-22T06:19:24.393Z,8.85
2023-03-22T06:20:24.370Z,8.91
2023-03-22T06:21:24.403Z,9.03
2023-03-22T06:22:24.349Z,9.18
2023-03-22T06:23:24.329Z,9.36
2023-03-22T06:24:24.324Z,9.32
2023-03-22T06:25:24.321Z,9.25
2023-03-22T06:26:24.406Z,9.08
2023-03-22T06:27:24.281Z,9.08
2023-03-22T06:28:24.268Z,9.22
2023-03-22T06:29:24.263Z,9.22
2023-03-22T06:30:24.283Z,9.28
2023-03-22T06:31:24.286Z,9.29
2023-03-22T06:32:24.206Z,9.34
2023-03-22T06:33:24.196Z,9.40
2023-03-22T06:34:24.170Z,9.31
2023-03-22T06:35:24.236Z,9.37
2023-03-22T06:36:24.222Z,9.43
2023-03-22T06:37:24.153Z,9.55
2023-03-22T06:38:24.133Z,9.61
2023-03-22T06:39:24.154Z,9.59
2023-03-22T06:40:24.126Z,-40.00
2023-03-22T06:41:24.142Z,-40.00
2023-03-22T06:42:24.090Z,9.22
2023-03-22T06:43:24.110Z,9.22
2023-03-22T06:44:24.078Z,9.19
2023-03-22T06:45:24.098Z,9.19
2023-03-22T06:46:24.157Z,9.26
2023-03-22T06:47:24.055Z,9.26
2023-03-22T06:48:24.080Z,9.23
2023-03-22T06:49:24.033Z,9.28
2023-03-22T06:50:24.012Z,9.26
2023-03-22T06:51:24.056Z,9.31
2023-03-22T06:52:23.998Z,9.36
2023-03-22T06:53:23.996Z,9.34
2023-03-22T06:54:23.962Z,9.39
2023-03-22T06:55:23.964Z,9.44
2023-03-22T06:56:23.978Z,9.47
2023-03-22T06:57:23.938Z,9.50
2023-03-22T06:58:23.921Z,9.50
2023-03-22T06:59:23.936Z,9.58
2023-03-22T07:00:23.908Z,9.55
2023-03-22T07:01:24.041Z,9.56
2023-03-22T07:02:23.851Z,9.64
2023-03-22T07:03:23.933Z,9.69
2023-03-22T07:04:23.863Z,9.77
2023-03-22T07:05:23.827Z,9.79
2023-03-22T07:06:23.861Z,9.83
2023-03-22T07:07:23.807Z,9.87
2023-03-22T07:08:23.803Z,9.84
2023-03-22T07:09:23.784Z,9.87
2023-03-22T07:10:23.803Z,9.94
2023-03-22T07:11:23.813Z,9.97
2023-03-22T07:12:23.754Z,9.98
2023-03-22T07:13:23.754Z,9.97
2023-03-22T07:14:23.708Z,9.97
2023-03-22T07:15:23.728Z,10.01
2023-03-22T07:16:23.874Z,10.07
2023-03-22T07:17:23.717Z,10.19
2023-03-22T07:18:23.694Z,10.12
2023-03-22T07:19:23.678Z,10.12
2023-03-22T07:20:23.690Z,10.15
2023-03-22T07:21:23.683Z,10.15
2023-03-22T07:22:23.682Z,10.22
2023-03-22T07:23:23.640Z,10.35
2023-03-22T07:24:23.630Z,10.37
2023-03-22T07:25:23.633Z,10.33
2023-03-22T07:26:23.646Z,10.30
2023-03-22T07:27:23.616Z,10.34
2023-03-22T07:28:23.586Z,10.33
2023-03-22T07:29:23.578Z,10.40
2023-03-22T07:30:23.587Z,10.42
2023-03-22T07:31:23.567Z,10.51
2023-03-22T07:32:23.622Z,10.46
2023-03-22T07:33:23.550Z,10.63
2023-03-22T07:34:23.529Z,10.67
2023-03-22T07:35:25.647Z,10.61
2023-03-22T07:36:23.527Z,10.59
2023-03-22T07:37:23.491Z,10.60
2023-03-22T07:38:23.476Z,10.63
2023-03-22T07:39:23.450Z,10.67
2023-03-22T07:40:23.429Z,10.74
2023-03-22T07:41:23.519Z,10.72
2023-03-22T07:42:23.419Z,10.69
2023-03-22T07:43:23.432Z,10.75
2023-03-22T07:44:23.383Z,10.79
2023-03-22T07:45:23.647Z,10.94
2023-03-22T07:46:23.539Z,11.00
2023-03-22T07:47:38.060Z,11.10
2023-03-22T07:48:24.498Z,11.18
2023-03-22T07:49:23.370Z,11.23
2023-03-22T07:50:23.346Z,11.29
2023-03-22T07:51:23.376Z,11.33
2023-03-22T07:52:23.330Z,11.44
2023-03-22T07:53:23.303Z,11.65
2023-03-22T07:54:33.461Z,11.66
2023-03-22T07:55:24.306Z,11.73
2023-03-22T07:56:23.318Z,11.62
2023-03-22T07:57:23.279Z,11.63
2023-03-22T07:58:23.241Z,11.84
2023-03-22T07:59:23.244Z,12.28
2023-03-22T08:00:23.369Z,12.79
2023-03-22T08:01:23.232Z,13.30
2023-03-22T08:02:23.263Z,13.77
2023-03-22T08:03:23.304Z,13.75
2023-03-22T08:04:23.211Z,13.75
2023-03-22T08:05:23.166Z,14.08
2023-03-22T08:06:23.179Z,14.04
2023-03-22T08:07:23.160Z,13.96
2023-03-22T08:08:23.136Z,14.00
2023-03-22T08:09:23.136Z,14.14
2023-03-22T08:10:23.121Z,14.29
2023-03-22T08:11:23.135Z,14.32
2023-03-22T08:12:23.240Z,14.22
2023-03-22T08:13:23.086Z,14.32
2023-03-22T08:14:35.462Z,14.58
2023-03-22T08:15:24.051Z,14.41
2023-03-22T08:16:23.108Z,13.95
2023-03-22T08:17:23.042Z,14.00
2023-03-22T08:18:23.019Z,14.59
2023-03-22T08:19:23.010Z,14.26
2023-03-22T08:20:23.069Z,14.59
2023-03-22T08:21:23.081Z,14.53
2023-03-22T08:22:22.961Z,14.62
2023-03-22T08:23:38.612Z,14.26
2023-03-22T08:24:23.952Z,14.12
2023-03-22T08:25:22.954Z,14.17
2023-03-22T08:26:22.998Z,14.59
2023-03-22T08:27:22.933Z,14.63
2023-03-22T08:28:22.901Z,15.17
2023-03-22T08:29:22.925Z,15.75
2023-03-22T08:30:22.870Z,16.33
2023-03-22T08:31:22.965Z,16.66
2023-03-22T08:32:22.844Z,17.06
2023-03-22T08:33:22.860Z,16.76
2023-03-22T08:34:22.857Z,15.98
2023-03-22T08:35:22.849Z,15.86
2023-03-22T08:36:22.875Z,15.27
2023-03-22T08:37:22.797Z,14.86
2023-03-22T08:38:22.794Z,15.14
2023-03-22T08:39:23.669Z,15.79
2023-03-22T08:40:22.819Z,15.18
2023-03-22T08:41:22.789Z,15.00
2023-03-22T08:42:22.729Z,15.31
2023-03-22T08:43:22.765Z,15.09
2023-03-22T08:44:22.730Z,14.99
2023-03-22T08:45:22.725Z,15.65
2023-03-22T08:46:22.773Z,15.59
2023-03-22T08:47:22.694Z,15.29
2023-03-22T08:48:22.810Z,15.37
2023-03-22T08:49:22.686Z,15.62
2023-03-22T08:50:22.667Z,15.67
2023-03-22T08:51:22.669Z,15.80
2023-03-22T08:52:22.678Z,16.35
2023-03-22T08:53:22.628Z,16.50
2023-03-22T08:54:22.625Z,16.49
2023-03-22T08:55:22.612Z,16.47
2023-03-22T08:56:22.590Z,16.23
2023-03-22T08:57:22.611Z,15.80
2023-03-22T08:58:22.551Z,15.70
2023-03-22T08:59:22.535Z,15.98
2023-03-22T09:00:22.528Z,15.84
2023-03-22T09:01:22.588Z,15.76
2023-03-22T09:02:22.614Z,15.47
2023-03-22T09:03:22.523Z,15.25
2023-03-22T09:04:22.540Z,15.51
2023-03-22T09:05:22.468Z,15.88
2023-03-22T09:06:22.486Z,15.95
2023-03-22T09:07:22.508Z,15.90
2023-03-22T09:08:22.453Z,15.83
2023-03-22T09:09:22.458Z,15.42
2023-03-22T09:10:22.496Z,15.64
2023-03-22T09:11:22.453Z,15.76
2023-03-22T09:12:22.545Z,15.17
2023-03-22T09:13:22.421Z,15.44
2023-03-22T09:14:22.417Z,15.64
2023-03-22T09:15:22.375Z,15.83
2023-03-22T09:16:22.411Z,16.09
2023-03-22T09:17:22.600Z,16.42
2023-03-22T09:18:22.361Z,16.58
2023-03-22T09:19:22.326Z,17.12
2023-03-22T09:20:22.344Z,17.06
2023-03-22T09:21:22.310Z,16.89
2023-03-22T09:22:22.306Z,16.36
2023-03-22T09:23:22.288Z,16.49
2023-03-22T09:24:22.260Z,16.33
2023-03-22T09:25:22.263Z,16.01
2023-03-22T09:26:22.308Z,15.84
2023-03-22T09:27:22.280Z,15.72
2023-03-22T09:28:22.254Z,15.73
2023-03-22T09:29:22.213Z,15.76
2023-03-22T09:30:22.182Z,15.88
2023-03-22T09:31:22.259Z,15.92
2023-03-22T09:32:22.219Z,15.95
2023-03-22T09:33:22.159Z,15.95
2023-03-22T09:34:22.175Z,15.77
2023-03-22T09:35:22.198Z,15.92
2023-03-22T09:36:22.166Z,15.84
2023-03-22T09:37:22.155Z,15.80
2023-03-22T09:38:22.118Z,16.41
2023-03-22T09:39:22.119Z,16.58
2023-03-22T09:40:22.098Z,16.57
2023-03-22T09:41:22.095Z,16.24
2023-03-22T09:42:22.123Z,15.79
2023-03-22T09:43:22.088Z,16.02
2023-03-22T09:44:22.037Z,15.98
2023-03-22T09:45:22.065Z,15.98
2023-03-22T09:46:22.070Z,16.26
2023-03-22T09:47:22.073Z,16.64
2023-03-22T09:48:22.062Z,16.91
2023-03-22T09:49:21.997Z,17.01
2023-03-22T09:50:22.093Z,17.64
2023-03-22T09:51:21.952Z,17.22
2023-03-22T09:52:22.068Z,17.05
2023-03-22T09:53:21.950Z,17.20
2023-03-22T09:54:21.971Z,17.64
2023-03-22T09:55:21.931Z,18.11
2023-03-22T09:56:21.923Z,18.25
2023-03-22T09:57:21.925Z,18.01
2023-03-22T09:58:21.878Z,17.98
2023-03-22T09:59:21.876Z,17.68
2023-03-22T10:00:22.047Z,18.03
2023-03-22T10:01:22.010Z,18.25
2023-03-22T10:02:21.949Z,17.72
2023-03-22T10:03:21.840Z,18.28
2023-03-22T10:04:21.866Z,18.18
2023-03-22T10:05:21.808Z,18.29
2023-03-22T10:06:21.810Z,18.62
2023-03-22T10:07:21.847Z,18.62
2023-03-22T10:08:21.763Z,18.58
2023-03-22T10:09:21.764Z,18.47
2023-03-22T10:10:21.757Z,18.49
2023-03-22T10:11:21.755Z,18.41
2023-03-22T10:12:21.762Z,18.10
2023-03-22T10:13:21.727Z,18.43
2023-03-22T10:14:21.764Z,18.96
2023-03-22T10:15:21.734Z,19.59
2023-03-22T10:16:21.735Z,20.25
2023-03-22T10:17:21.708Z,20.04
2023-03-22T10:18:21.675Z,20.03
2023-03-22T10:19:21.644Z,19.40
2023-03-22T10:20:21.669Z,19.55
2023-03-22T10:21:21.617Z,19.09
2023-03-22T10:22:21.659Z,19.19
2023-03-22T10:23:21.617Z,18.59
2023-03-22T10:24:21.623Z,18.68
2023-03-22T10:25:21.648Z,18.31
2023-03-22T10:26:21.570Z,18.80
2023-03-22T10:27:21.618Z,18.98
2023-03-22T10:28:21.541Z,18.68
2023-03-22T10:29:21.557Z,18.65
2023-03-22T10:30:21.554Z,18.96
2023-03-22T10:31:21.594Z,18.62
2023-03-22T10:32:21.549Z,18.95
2023-03-22T10:33:21.518Z,18.90
2023-03-22T10:34:21.584Z,18.99
2023-03-22T10:35:21.572Z,19.11
2023-03-22T10:36:21.463Z,19.26
2023-03-22T10:37:21.514Z,19.30
2023-03-22T10:38:21.473Z,19.58
2023-03-22T10:39:21.447Z,19.56
2023-03-22T10:40:21.415Z,19.62
2023-03-22T10:41:21.398Z,19.56
2023-03-22T10:42:21.415Z,18.99
2023-03-22T10:43:21.408Z,18.83
2023-03-22T10:44:21.405Z,19.12
2023-03-22T10:45:21.397Z,19.48
2023-03-22T10:46:21.429Z,19.12
2023-03-22T10:47:21.345Z,19.16
2023-03-22T10:48:21.378Z,19.49
2023-03-22T10:49:21.377Z,19.51
2023-03-22T10:50:21.313Z,19.34
2023-03-22T10:51:21.329Z,19.33
2023-03-22T10:52:21.311Z,19.52
2023-03-22T10:53:21.318Z,19.26
2023-03-22T10:54:21.297Z,18.92
2023-03-22T10:55:21.256Z,19.12
2023-03-22T10:56:21.256Z,18.95
2023-03-22T10:57:21.236Z,18.98
2023-03-22T10:58:21.277Z,18.84
2023-03-22T10:59:21.200Z,18.96
2023-03-22T11:00:21.209Z,18.75
2023-03-22T11:01:21.295Z,19.40
2023-03-22T11:02:21.261Z,19.76
2023-03-22T11:03:21.194Z,19.51
2023-03-22T11:04:21.168Z,18.62
2023-03-22T11:05:21.145Z,18.03
2023-03-22T11:06:21.153Z,17.49
2023-03-22T11:07:21.110Z,17.65
2023-03-22T11:08:21.156Z,17.34
2023-03-22T11:09:21.088Z,17.15
2023-03-22T11:10:21.148Z,16.94
2023-03-22T11:11:21.080Z,16.81
2023-03-22T11:12:21.081Z,16.83
2023-03-22T11:13:21.120Z,17.08
2023-03-22T11:14:21.073Z,17.26
2023-03-22T11:15:21.045Z,17.38
2023-03-22T11:16:21.085Z,18.34
2023-03-22T11:17:21.005Z,18.33
2023-03-22T11:18:21.049Z,18.53
2023-03-22T11:19:20.993Z,19.26
2023-03-22T11:20:21.037Z,19.30
2023-03-22T11:21:20.961Z,19.67
2023-03-22T11:22:20.980Z,19.16
2023-03-22T11:23:20.980Z,18.28
2023-03-22T11:24:20.929Z,18.15
2023-03-22T11:25:20.957Z,19.00
2023-03-22T11:26:20.922Z,19.31
2023-03-22T11:27:20.897Z,19.47
2023-03-22T11:28:20.902Z,20.25
2023-03-22T11:29:20.867Z,20.24
2023-03-22T11:30:20.853Z,20.55
2023-03-22T11:31:20.917Z,20.24
2023-03-22T11:32:20.953Z,19.54
2023-03-22T11:33:20.888Z,18.75
2023-03-22T11:34:20.831Z,18.40
2023-03-22T11:35:20.852Z,18.16
2023-03-22T11:36:20.812Z,17.92
2023-03-22T11:37:20.778Z,17.94
2023-03-22T11:38:20.818Z,17.85
2023-03-22T11:39:20.761Z,17.74
2023-03-22T11:40:20.741Z,18.04
2023-03-22T11:41:20.733Z,18.38
2023-03-22T11:42:20.735Z,18.62
2023-03-22T11:43:20.726Z,18.34
2023-03-22T11:44:20.775Z,18.47
2023-03-22T11:45:20.703Z,18.01
2023-03-22T11:46:20.844Z,17.92
2023-03-22T11:47:20.696Z,18.63
2023-03-22T11:48:20.784Z,19.07
2023-03-22T11:49:20.706Z,19.55
2023-03-22T11:50:20.664Z,20.07
2023-03-22T11:51:21.430Z,20.36
2023-03-22T11:52:20.651Z,20.82
2023-03-22T11:53:20.628Z,21.39
2023-03-22T11:54:20.641Z,21.77
2023-03-22T11:55:20.607Z,21.43
2023-03-22T11:56:20.565Z,21.83
2023-03-22T11:57:20.572Z,20.92
2023-03-22T11:58:21.498Z,19.89
2023-03-22T11:59:20.643Z,19.48
2023-03-22T12:00:20.539Z,19.91
2023-03-22T12:01:20.545Z,20.66
2023-03-22T12:02:20.580Z,20.41
2023-03-22T12:03:20.622Z,20.84
2023-03-22T12:04:20.727Z,21.03
2023-03-22T12:05:20.561Z,21.50
2023-03-22T12:06:20.526Z,21.18
2023-03-22T12:07:20.444Z,21.00
2023-03-22T12:08:20.457Z,21.05
2023-03-22T12:09:20.486Z,20.87
2023-03-22T12:10:20.414Z,20.60
2023-03-22T12:11:20.387Z,20.07
2023-03-22T12:12:20.391Z,19.59
2023-03-22T12:13:20.391Z,18.89
2023-03-22T12:14:20.427Z,19.00
2023-03-22T12:15:20.433Z,20.13
2023-03-22T12:16:21.164Z,20.43
2023-03-22T12:17:20.344Z,20.14
2023-03-22T12:18:20.368Z,19.55
2023-03-22T12:19:20.369Z,19.16
2023-03-22T12:20:20.290Z,19.21
2023-03-22T12:21:20.307Z,19.30
2023-03-22T12:22:20.299Z,19.30
2023-03-22T12:23:20.273Z,19.02
2023-03-22T12:24:20.288Z,18.93
2023-03-22T12:25:20.237Z,18.75
2023-03-22T12:26:20.225Z,18.53
2023-03-22T12:27:20.220Z,18.50
2023-03-22T12:28:20.237Z,18.33
2023-03-22T12:29:20.237Z,18.16
2023-03-22T12:30:20.204Z,17.98
2023-03-22T12:31:20.214Z,17.79
2023-03-22T12:32:20.187Z,17.70
2023-03-22T12:33:20.229Z,17.71
2023-03-22T12:34:20.190Z,17.56
2023-03-22T12:35:20.154Z,17.54
2023-03-22T12:36:20.155Z,17.51
2023-03-22T12:37:20.141Z,17.44
2023-03-22T12:38:20.112Z,17.36
2023-03-22T12:39:20.130Z,17.80
2023-03-22T12:40:20.215Z,18.40
2023-03-22T12:41:20.100Z,18.74
2023-03-22T12:42:20.078Z,19.16
2023-03-22T12:43:20.048Z,19.45
2023-03-22T12:44:20.108Z,19.58
2023-03-22T12:45:20.024Z,19.49
2023-03-22T12:46:20.057Z,19.47
2023-03-22T12:47:20.011Z,19.29
2023-03-22T12:48:20.059Z,18.96
2023-03-22T12:49:20.050Z,19.11
2023-03-22T12:50:19.973Z,18.98
2023-03-22T12:51:19.986Z,18.90
2023-03-22T12:52:19.955Z,19.16
2023-03-22T12:53:19.963Z,19.08
2023-03-22T12:54:19.929Z,19.11
2023-03-22T12:55:19.925Z,18.86
2023-03-22T12:56:19.886Z,18.86
2023-03-22T12:57:19.902Z,18.93
2023-03-22T12:58:19.897Z,18.96
2023-03-22T12:59:19.849Z,18.81
2023-03-22T13:00:19.895Z,18.68
2023-03-22T13:01:19.880Z,18.63
2023-03-22T13:02:19.859Z,18.83
2023-03-22T13:03:19.979Z,19.19
2023-03-22T13:04:19.885Z,19.36
2023-03-22T13:05:19.820Z,19.36